Time;durP1;ratioP1;P1;durP2;ratioP2;P2;SDS_P1;SDS_P2;PMS_P1;PMS_P2;Temp;Humidity;BMP_temperature;BMP_pressure;BME280_temperature;BME280_humidity;BME280_pressure;Samples;Min_cycle;Max_cycle;Signal;HPM_P1;HPM_P2
2021/09/19 00:01:47;;;;;;;;;;;13.20;1.00;;;;;;5040992;28;19913;-65
2021/09/19 00:04:12;;;;;;;;;;;13.20;1.00;;;;;;5036950;28;19908;-64
2021/09/19 00:06:38;;;;;;;;;;;13.10;1.00;;;;;;5045582;28;20393;-64
2021/09/19 00:09:03;;;;;;;;;;;13.10;1.00;;;;;;5038053;28;20365;-66
2021/09/19 00:11:29;;;;;;;;;;;13.10;1.00;;;;;;5026223;28;19920;-66
2021/09/19 00:13:54;;;;;;;;;;;13.10;1.00;;;;;;5035778;28;19909;-64
2021/09/19 00:16:20;;;;;;;;;;;13.00;1.00;;;;;;5044698;28;19942;-66
2021/09/19 00:18:46;;;;;;;;;;;13.00;1.00;;;;;;5045987;28;19916;-66
2021/09/19 00:21:11;;;;;;;;;;;13.00;1.00;;;;;;5048045;28;20027;-66
2021/09/19 00:23:37;;;;;;;;;;;12.90;1.00;;;;;;5047034;28;19908;-66
2021/09/19 00:26:02;;;;;;;;;;;12.90;1.00;;;;;;5039222;28;19940;-66
2021/09/19 00:28:28;;;;;;;;;;;12.90;1.00;;;;;;5028441;28;19913;-64
2021/09/19 00:30:53;;;;;;;;;;;12.90;1.00;;;;;;5043871;28;19909;-65
2021/09/19 00:33:19;;;;;;;;;;;12.90;1.00;;;;;;5050544;28;19980;-65
2021/09/19 00:35:44;;;;;;;;;;;12.90;1.00;;;;;;5052291;28;20321;-64
2021/09/19 00:38:10;;;;;;;;;;;12.90;1.00;;;;;;5050696;28;19928;-65
2021/09/19 00:40:35;;;;;;;;;;;12.80;1.00;;;;;;5051535;28;20372;-65
2021/09/19 00:43:01;;;;;;;;;;;12.80;1.00;;;;;;5032926;28;19974;-65
2021/09/19 00:45:27;;;;;;;;;;;12.80;1.00;;;;;;5051683;28;19916;-65
2021/09/19 00:47:52;;;;;;;;;;;12.70;1.00;;;;;;5051055;28;20399;-64
2021/09/19 00:50:19;;;;;;;;;;;12.70;1.00;;;;;;5052171;28;19940;-66
2021/09/19 00:52:45;;;;;;;;;;;12.70;1.00;;;;;;5049944;28;19909;-65
2021/09/19 00:55:11;;;;;;;;;;;12.60;1.00;;;;;;5051257;28;19913;-66
2021/09/19 00:57:41;;;;;;;;;;;12.60;1.00;;;;;;5051547;28;19909;-63
2021/09/19 01:00:07;;;;;;;;;;;12.70;1.00;;;;;;5051903;28;19908;-64
2021/09/19 01:02:34;;;;;;;;;;;12.60;1.00;;;;;;5050330;28;19909;-63
2021/09/19 01:04:59;;;;;;;;;;;12.60;1.00;;;;;;5052108;28;20282;-64
2021/09/19 01:07:25;;;;;;;;;;;12.60;1.00;;;;;;5051441;28;19989;-64
2021/09/19 01:09:52;;;;;;;;;;;12.60;1.00;;;;;;5037311;28;19944;-64
2021/09/19 01:12:19;;;;;;;;;;;12.60;1.00;;;;;;5030874;28;19920;-64
2021/09/19 01:14:47;;;;;;;;;;;12.60;1.00;;;;;;5048392;28;20436;-64
2021/09/19 01:17:13;;;;;;;;;;;12.50;1.00;;;;;;5051415;28;19915;-65
2021/09/19 01:19:39;;;;;;;;;;;12.50;1.00;;;;;;5051659;28;19917;-65
2021/09/19 01:22:04;;;;;;;;;;;12.50;1.00;;;;;;5049677;28;19944;-64
2021/09/19 01:24:31;;;;;;;;;;;12.40;1.00;;;;;;5050724;28;19948;-65
2021/09/19 01:26:56;;;;;;;;;;;12.50;1.00;;;;;;5042300;28;19919;-65
2021/09/19 01:29:22;;;;;;;;;;;12.50;1.00;;;;;;5036429;28;19917;-65
2021/09/19 01:31:48;;;;;;;;;;;12.40;1.00;;;;;;5029605;28;20389;-65
2021/09/19 01:34:13;;;;;;;;;;;12.40;1.00;;;;;;5030829;28;20436;-65
2021/09/19 01:36:40;;;;;;;;;;;12.40;1.00;;;;;;5030448;28;19916;-64
2021/09/19 01:39:06;;;;;;;;;;;12.40;1.00;;;;;;5030073;28;19913;-65
2021/09/19 01:41:32;;;;;;;;;;;12.30;1.00;;;;;;5030372;28;20024;-65
2021/09/19 01:43:58;;;;;;;;;;;12.30;1.00;;;;;;5030192;28;20008;-65
2021/09/19 01:46:23;;;;;;;;;;;12.30;1.00;;;;;;5031799;28;19913;-65
2021/09/19 01:48:49;;;;;;;;;;;12.30;1.00;;;;;;5031707;28;19913;-65
2021/09/19 01:51:14;;;;;;;;;;;12.20;1.00;;;;;;5030380;28;19913;-65
2021/09/19 01:53:40;;;;;;;;;;;12.20;1.00;;;;;;5029782;28;20465;-65
2021/09/19 01:56:06;;;;;;;;;;;12.20;1.00;;;;;;5013390;28;19916;-65
2021/09/19 01:58:31;;;;;;;;;;;12.20;1.00;;;;;;5030208;28;19989;-63
2021/09/19 02:00:59;;;;;;;;;;;12.10;1.00;;;;;;5031137;28;20286;-65
2021/09/19 02:03:24;;;;;;;;;;;12.20;1.00;;;;;;5028999;28;19919;-65
2021/09/19 02:05:50;;;;;;;;;;;12.20;1.00;;;;;;5030483;28;19913;-65
2021/09/19 02:08:16;;;;;;;;;;;12.10;1.00;;;;;;5029140;28;19913;-65
2021/09/19 02:10:41;;;;;;;;;;;12.10;1.00;;;;;;5030422;28;19953;-65
2021/09/19 02:13:07;;;;;;;;;;;12.10;1.00;;;;;;5032275;28;19967;-65
2021/09/19 02:15:33;;;;;;;;;;;12.00;1.00;;;;;;5050267;28;19909;-65
2021/09/19 02:17:59;;;;;;;;;;;12.00;1.00;;;;;;5049530;28;19928;-65
2021/09/19 02:20:24;;;;;;;;;;;12.00;1.00;;;;;;5050070;28;19912;-65
2021/09/19 02:22:50;;;;;;;;;;;11.90;1.00;;;;;;5048758;28;19909;-65
2021/09/19 02:25:15;;;;;;;;;;;11.90;1.00;;;;;;5046992;28;20342;-65
2021/09/19 02:27:41;;;;;;;;;;;11.90;1.00;;;;;;5029861;28;19935;-65
2021/09/19 02:30:08;;;;;;;;;;;11.90;1.00;;;;;;5030039;28;20294;-65
2021/09/19 02:32:34;;;;;;;;;;;11.90;1.00;;;;;;5028655;28;20004;-65
2021/09/19 02:34:59;;;;;;;;;;;11.90;1.00;;;;;;5029711;28;20343;-65
2021/09/19 02:37:25;;;;;;;;;;;11.90;1.00;;;;;;5028709;28;20278;-65
2021/09/19 02:39:50;;;;;;;;;;;11.90;1.00;;;;;;5029584;28;19919;-65
2021/09/19 02:42:16;;;;;;;;;;;11.90;1.00;;;;;;5028894;28;19917;-64
2021/09/19 02:44:41;;;;;;;;;;;11.90;1.00;;;;;;5012213;28;19990;-65
2021/09/19 02:47:07;;;;;;;;;;;11.80;1.00;;;;;;5029355;28;19917;-65
2021/09/19 02:49:33;;;;;;;;;;;11.80;1.00;;;;;;5029632;28;20497;-65
2021/09/19 02:51:58;;;;;;;;;;;11.80;1.00;;;;;;5027941;28;20346;-65
2021/09/19 02:54:24;;;;;;;;;;;11.80;1.00;;;;;;5011324;28;19916;-65
2021/09/19 02:56:49;;;;;;;;;;;11.80;1.00;;;;;;5029283;28;19913;-65
2021/09/19 02:59:15;;;;;;;;;;;11.70;1.00;;;;;;5029866;28;19924;-65
2021/09/19 03:01:40;;;;;;;;;;;11.80;1.00;;;;;;5026981;28;20403;-65
2021/09/19 03:04:06;;;;;;;;;;;11.70;1.00;;;;;;5040194;28;19908;-65
2021/09/19 03:06:31;;;;;;;;;;;11.70;1.00;;;;;;5030645;28;20412;-65
2021/09/19 03:08:57;;;;;;;;;;;11.70;1.00;;;;;;5042367;28;19929;-65
2021/09/19 03:11:23;;;;;;;;;;;11.70;1.00;;;;;;5029339;28;19909;-66
2021/09/19 03:13:48;;;;;;;;;;;11.70;1.00;;;;;;5037534;28;19909;-64
2021/09/19 03:16:14;;;;;;;;;;;11.60;1.00;;;;;;5049280;28;20000;-64
2021/09/19 03:18:39;;;;;;;;;;;11.60;1.00;;;;;;5049104;28;19909;-64
2021/09/19 03:21:05;;;;;;;;;;;11.60;1.00;;;;;;5049253;28;19909;-64
2021/09/19 03:23:30;;;;;;;;;;;11.60;1.00;;;;;;5047266;28;20285;-64
2021/09/19 03:25:56;;;;;;;;;;;11.60;1.00;;;;;;5041453;28;19932;-64
2021/09/19 03:28:22;;;;;;;;;;;11.60;1.00;;;;;;5029094;28;19932;-64
2021/09/19 03:30:47;;;;;;;;;;;11.50;1.00;;;;;;5029325;28;20266;-64
2021/09/19 03:33:13;;;;;;;;;;;11.50;1.00;;;;;;5028082;28;20003;-64
2021/09/19 03:35:38;;;;;;;;;;;11.50;1.00;;;;;;5029148;28;19964;-63
2021/09/19 03:38:04;;;;;;;;;;;11.40;1.00;;;;;;5027553;28;20066;-63
2021/09/19 03:40:29;;;;;;;;;;;11.40;1.00;;;;;;5029169;28;19909;-65
2021/09/19 03:42:55;;;;;;;;;;;11.40;1.00;;;;;;5027727;28;20000;-65
2021/09/19 03:45:23;;;;;;;;;;;11.40;1.00;;;;;;5028771;28;20248;-65
2021/09/19 03:47:49;;;;;;;;;;;11.30;1.00;;;;;;5027950;28;19952;-65
2021/09/19 03:50:15;;;;;;;;;;;11.30;1.00;;;;;;5028753;28;20022;-65
2021/09/19 03:52:40;;;;;;;;;;;11.30;1.00;;;;;;5027018;28;19944;-65
2021/09/19 03:55:06;;;;;;;;;;;11.30;1.00;;;;;;5028266;28;20293;-65
2021/09/19 03:57:31;;;;;;;;;;;11.30;1.00;;;;;;5028745;28;19917;-65
2021/09/19 03:59:57;;;;;;;;;;;11.30;1.00;;;;;;5028569;28;19968;-64
2021/09/19 04:02:22;;;;;;;;;;;11.30;1.00;;;;;;5027333;28;19913;-64
2021/09/19 04:04:48;;;;;;;;;;;11.20;1.00;;;;;;5031134;28;20571;-64
2021/09/19 04:07:13;;;;;;;;;;;11.20;1.00;;;;;;5031713;28;19910;-64
2021/09/19 04:09:39;;;;;;;;;;;11.20;1.00;;;;;;5032190;28;19910;-64
2021/09/19 04:12:04;;;;;;;;;;;11.20;1.00;;;;;;5031077;28;20012;-64
2021/09/19 04:14:30;;;;;;;;;;;11.10;1.00;;;;;;5047341;28;19909;-63
2021/09/19 04:16:56;;;;;;;;;;;11.10;1.00;;;;;;5052215;28;19913;-65
2021/09/19 04:19:21;;;;;;;;;;;11.10;1.00;;;;;;5052814;28;19994;-64
2021/09/19 04:21:47;;;;;;;;;;;11.10;1.00;;;;;;5051566;28;19916;-65
2021/09/19 04:24:13;;;;;;;;;;;11.10;1.00;;;;;;5051597;28;19924;-64
2021/09/19 04:26:38;;;;;;;;;;;11.10;1.00;;;;;;5046891;28;19920;-66
2021/09/19 04:29:04;;;;;;;;;;;11.00;1.00;;;;;;5037315;28;19917;-66
2021/09/19 04:31:29;;;;;;;;;;;11.00;1.00;;;;;;5031804;28;19913;-65
2021/09/19 04:33:55;;;;;;;;;;;11.00;1.00;;;;;;5030799;28;19956;-64
2021/09/19 04:36:20;;;;;;;;;;;11.00;1.00;;;;;;5031434;28;19956;-64
2021/09/19 04:38:46;;;;;;;;;;;11.00;1.00;;;;;;5031647;28;19909;-64
2021/09/19 04:41:11;;;;;;;;;;;11.00;1.00;;;;;;5031762;28;20373;-64
2021/09/19 04:43:37;;;;;;;;;;;10.90;1.00;;;;;;5030835;28;19959;-64
2021/09/19 04:46:02;;;;;;;;;;;10.90;1.00;;;;;;5032108;28;20396;-64
2021/09/19 04:48:28;;;;;;;;;;;10.90;1.00;;;;;;5031029;28;19909;-64
2021/09/19 04:50:53;;;;;;;;;;;10.80;1.00;;;;;;5031999;28;19909;-66
2021/09/19 04:53:19;;;;;;;;;;;10.80;1.00;;;;;;5011808;28;19909;-65
2021/09/19 04:55:44;;;;;;;;;;;10.80;1.00;;;;;;5031399;28;20258;-64
2021/09/19 04:58:10;;;;;;;;;;;10.80;1.00;;;;;;5031110;28;19948;-65
2021/09/19 05:00:35;;;;;;;;;;;10.80;1.00;;;;;;5031625;28;19909;-64
2021/09/19 05:03:01;;;;;;;;;;;10.90;1.00;;;;;;5030018;28;19913;-64
2021/09/19 05:05:26;;;;;;;;;;;10.90;1.00;;;;;;5031660;28;19913;-65
2021/09/19 05:07:52;;;;;;;;;;;10.90;1.00;;;;;;5030438;28;20370;-65
2021/09/19 05:10:17;;;;;;;;;;;10.90;1.00;;;;;;5031222;28;19917;-65
2021/09/19 05:12:43;;;;;;;;;;;10.90;1.00;;;;;;5030676;28;20331;-65
2021/09/19 05:15:08;;;;;;;;;;;11.00;1.00;;;;;;5047550;28;19920;-65
2021/09/19 05:17:34;;;;;;;;;;;11.20;1.00;;;;;;5030502;28;20297;-65
2021/09/19 05:19:59;;;;;;;;;;;11.40;1.00;;;;;;5031464;28;19909;-65
2021/09/19 05:22:25;;;;;;;;;;;11.60;1.00;;;;;;5029467;28;19913;-65
2021/09/19 05:24:50;;;;;;;;;;;11.90;1.00;;;;;;5040866;28;19955;-65
2021/09/19 05:27:16;;;;;;;;;;;12.30;1.00;;;;;;5032033;28;19913;-65
2021/09/19 05:29:41;;;;;;;;;;;12.60;1.00;;;;;;5031254;28;19913;-65
2021/09/19 05:32:07;;;;;;;;;;;13.00;1.00;;;;;;5029207;28;19956;-66
2021/09/19 05:34:32;;;;;;;;;;;13.50;1.00;;;;;;5030165;28;19925;-65
2021/09/19 05:36:59;;;;;;;;;;;14.00;99.90;;;;;;5029793;28;19917;-64
2021/09/19 05:39:24;;;;;;;;;;;14.60;1.00;;;;;;5011615;28;19921;-65
2021/09/19 05:41:51;;;;;;;;;;;15.10;99.90;;;;;;5029813;28;19921;-66
2021/09/19 05:44:17;;;;;;;;;;;15.50;1.00;;;;;;5029840;28;20315;-66
2021/09/19 05:46:42;;;;;;;;;;;15.90;1.00;;;;;;5029826;28;19990;-66
2021/09/19 05:49:08;;;;;;;;;;;16.50;99.90;;;;;;5030665;28;19920;-66
2021/09/19 05:51:33;;;;;;;;;;;16.90;99.90;;;;;;5029854;28;19925;-64
2021/09/19 05:53:59;;;;;;;;;;;17.50;1.00;;;;;;5029002;28;19909;-64
2021/09/19 05:56:24;;;;;;;;;;;18.00;1.00;;;;;;5030808;28;20333;-64
2021/09/19 05:58:50;;;;;;;;;;;18.50;1.00;;;;;;5031160;28;20012;-63
2021/09/19 06:01:16;;;;;;;;;;;18.90;1.00;;;;;;5032876;28;19913;-65
2021/09/19 06:03:41;;;;;;;;;;;19.40;1.00;;;;;;5037304;28;19991;-65
2021/09/19 06:06:07;;;;;;;;;;;19.90;99.90;;;;;;5034386;28;19932;-65
2021/09/19 06:08:32;;;;;;;;;;;20.60;99.90;;;;;;5011219;28;20410;-67
2021/09/19 06:10:58;;;;;;;;;;;21.10;99.90;;;;;;5030792;28;20407;-65
2021/09/19 06:13:23;;;;;;;;;;;21.60;99.90;;;;;;5028337;28;20365;-65
2021/09/19 06:15:49;;;;;;;;;;;22.00;99.90;;;;;;5030360;28;19975;-64
2021/09/19 06:18:14;;;;;;;;;;;22.50;99.90;;;;;;5029060;28;19999;-65
2021/09/19 06:20:40;;;;;;;;;;;23.10;99.90;;;;;;5029580;28;19967;-65
2021/09/19 06:23:06;;;;;;;;;;;23.40;99.90;;;;;;5015371;28;19944;-65
2021/09/19 06:25:32;;;;;;;;;;;23.40;99.90;;;;;;5033450;28;20336;-64
2021/09/19 06:27:57;;;;;;;;;;;23.80;99.90;;;;;;5027268;28;19917;-66
2021/09/19 06:30:23;;;;;;;;;;;24.00;99.90;;;;;;5028985;28;20020;-65
2021/09/19 06:32:48;;;;;;;;;;;24.30;99.90;;;;;;5027571;28;19932;-65
2021/09/19 06:35:14;;;;;;;;;;;24.70;99.90;;;;;;5029400;28;19913;-66
2021/09/19 06:37:39;;;;;;;;;;;25.10;99.90;;;;;;5028112;28;19913;-66
2021/09/19 06:40:05;;;;;;;;;;;25.60;99.90;;;;;;5010845;28;19914;-65
2021/09/19 06:42:31;;;;;;;;;;;26.20;99.90;;;;;;5010456;28;20262;-66
2021/09/19 06:44:56;;;;;;;;;;;26.50;99.90;;;;;;5028514;28;19925;-66
2021/09/19 06:47:22;;;;;;;;;;;26.60;99.90;;;;;;5027848;28;20014;-66
2021/09/19 06:49:47;;;;;;;;;;;27.30;99.90;;;;;;5029084;28;20331;-67
2021/09/19 06:52:13;;;;;;;;;;;27.70;99.90;;;;;;5027015;28;19990;-65
2021/09/19 06:54:39;;;;;;;;;;;27.80;99.90;;;;;;5028039;28;20018;-65
2021/09/19 06:57:04;;;;;;;;;;;27.90;99.90;;;;;;5028042;28;19924;-65
2021/09/19 06:59:30;;;;;;;;;;;28.40;99.90;;;;;;5028783;28;20271;-66
2021/09/19 07:01:55;;;;;;;;;;;29.00;99.90;;;;;;5026972;28;19916;-66
2021/09/19 07:04:20;;;;;;;;;;;29.70;99.90;;;;;;5028965;28;19956;-66
2021/09/19 07:06:46;;;;;;;;;;;30.30;99.90;;;;;;5027857;28;20378;-65
2021/09/19 07:09:12;;;;;;;;;;;30.60;99.90;;;;;;5027346;28;19960;-66
2021/09/19 07:11:38;;;;;;;;;;;31.20;99.90;;;;;;5029008;28;19913;-67
2021/09/19 07:14:03;;;;;;;;;;;32.10;99.90;;;;;;5013168;28;20015;-66
2021/09/19 07:16:29;;;;;;;;;;;33.10;99.90;;;;;;5028468;28;20034;-66
2021/09/19 07:18:54;;;;;;;;;;;33.00;99.90;;;;;;5028089;28;20009;-66
2021/09/19 07:21:22;;;;;;;;;;;32.90;99.90;;;;;;5026920;28;19917;-66
2021/09/19 07:23:48;;;;;;;;;;;33.50;99.90;;;;;;5027807;28;19917;-66
2021/09/19 07:26:13;;;;;;;;;;;33.80;99.90;;;;;;5028017;28;20342;-66
2021/09/19 07:28:39;;;;;;;;;;;33.80;99.90;;;;;;5028221;28;19924;-66
2021/09/19 07:31:04;;;;;;;;;;;34.00;99.90;;;;;;5027318;28;19956;-67
2021/09/19 07:33:30;;;;;;;;;;;33.90;99.90;;;;;;5026013;28;19995;-64
2021/09/19 07:35:56;;;;;;;;;;;33.60;99.90;;;;;;5025100;28;19913;-65
2021/09/19 07:38:22;;;;;;;;;;;33.90;99.90;;;;;;5025619;28;20007;-67
2021/09/19 07:40:47;;;;;;;;;;;34.50;99.90;;;;;;5031106;28;20442;-66
2021/09/19 07:43:13;;;;;;;;;;;34.30;96.80;;;;;;5029627;28;19994;-67
2021/09/19 07:45:38;;;;;;;;;;;34.20;94.30;;;;;;5030855;28;19921;-67
2021/09/19 07:48:08;;;;;;;;;;;35.20;92.80;;;;;;5030711;28;20416;-67
2021/09/19 07:50:34;;;;;;;;;;;35.80;88.70;;;;;;5013912;28;19921;-66
2021/09/19 07:53:00;;;;;;;;;;;34.10;83.60;;;;;;5029029;28;19924;-66
2021/09/19 07:55:28;;;;;;;;;;;34.60;78.80;;;;;;5032193;28;19917;-67
2021/09/19 07:57:53;;;;;;;;;;;36.20;73.60;;;;;;5030857;28;20385;-65
2021/09/19 08:00:19;;;;;;;;;;;38.20;70.60;;;;;;5028185;28;20020;-65
2021/09/19 08:02:44;;;;;;;;;;;39.20;63.60;;;;;;5011832;28;19924;-65
2021/09/19 08:05:10;;;;;;;;;;;38.90;56.80;;;;;;5024052;28;19909;-65
2021/09/19 08:07:36;;;;;;;;;;;38.90;53.50;;;;;;5031434;28;20330;-65
2021/09/19 08:10:02;;;;;;;;;;;38.90;48.10;;;;;;5031771;28;20046;-66
2021/09/19 08:12:28;;;;;;;;;;;39.90;43.60;;;;;;5031022;28;20016;-66
2021/09/19 08:14:53;;;;;;;;;;;40.60;39.60;;;;;;5051015;28;19919;-66
2021/09/19 08:17:19;;;;;;;;;;;41.90;35.00;;;;;;5035402;28;19921;-65
2021/09/19 08:19:44;;;;;;;;;;;42.70;30.00;;;;;;5031324;28;19921;-66
2021/09/19 08:22:10;;;;;;;;;;;44.10;27.00;;;;;;5030694;28;19952;-66
2021/09/19 08:24:35;;;;;;;;;;;45.40;23.60;;;;;;5039641;28;20009;-66
2021/09/19 08:27:03;;;;;;;;;;;46.10;19.90;;;;;;5034780;28;19913;-66
2021/09/19 08:29:28;;;;;;;;;;;46.70;15.70;;;;;;5031875;28;20398;-66
2021/09/19 08:31:54;;;;;;;;;;;47.10;10.80;;;;;;5012872;28;19959;-65
2021/09/19 08:34:19;;;;;;;;;;;47.70;7.00;;;;;;5031681;28;19921;-66
2021/09/19 08:36:45;;;;;;;;;;;48.50;3.40;;;;;;5030213;28;19915;-65
2021/09/19 08:39:11;;;;;;;;;;;47.80;1.00;;;;;;5031320;28;19936;-66
2021/09/19 08:41:36;;;;;;;;;;;48.10;1.00;;;;;;5031213;28;20324;-65
2021/09/19 08:44:02;;;;;;;;;;;47.60;1.00;;;;;;5030761;28;19917;-65
2021/09/19 08:46:29;;;;;;;;;;;48.50;1.00;;;;;;5031098;28;20302;-66
2021/09/19 08:48:54;;;;;;;;;;;48.30;1.00;;;;;;5031307;28;19913;-66
2021/09/19 08:51:20;;;;;;;;;;;47.20;1.00;;;;;;5028798;28;20396;-65
2021/09/19 08:53:46;;;;;;;;;;;45.70;1.00;;;;;;5029323;28;19940;-66
2021/09/19 08:56:11;;;;;;;;;;;45.90;1.00;;;;;;5030426;28;19916;-65
2021/09/19 08:58:40;;;;;;;;;;;47.10;1.00;;;;;;5027787;28;19917;-65
2021/09/19 09:01:06;;;;;;;;;;;47.70;1.00;;;;;;5021421;28;19909;-65
2021/09/19 09:03:31;;;;;;;;;;;47.80;1.00;;;;;;5088815;22;20019;-67
2021/09/19 09:06:04;;;;;;;;;;;47.00;1.00;;;;;;5086921;28;19916;-66
2021/09/19 09:08:31;;;;;;;;;;;47.90;1.00;;;;;;5085816;28;20516;-67
2021/09/19 09:10:59;;;;;;;;;;;48.10;1.00;;;;;;5087790;28;20210;-68
2021/09/19 09:13:28;;;;;;;;;;;47.70;1.00;;;;;;5080135;28;20319;-67
2021/09/19 09:16:05;;;;;;;;;;;48.30;1.00;;;;;;5082441;28;19966;-68
2021/09/19 09:18:30;;;;;;;;;;;47.70;1.00;;;;;;5086807;28;19943;-66
2021/09/19 09:20:56;;;;;;;;;;;47.40;1.00;;;;;;5087638;28;19912;-66
2021/09/19 09:23:25;;;;;;;;;;;46.80;1.00;;;;;;5082185;28;19916;-67
2021/09/19 09:26:27;;;;;;;;;;;44.60;1.00;;;;;;5083962;28;20390;-67
2021/09/19 09:28:52;;;;;;;;;;;41.90;1.00;;;;;;5001074;28;19929;-67
2021/09/19 09:31:19;;;;;;;;;;;43.20;1.00;;;;;;5072716;28;19953;-67
2021/09/19 09:34:03;;;;;;;;;;;43.80;1.00;;;;;;5088160;28;19916;-66
2021/09/19 09:36:30;;;;;;;;;;;43.70;1.00;;;;;;5089436;28;19928;-66
2021/09/19 09:38:55;;;;;;;;;;;44.10;1.00;;;;;;5089559;28;19915;-66
2021/09/19 09:41:36;;;;;;;;;;;43.40;1.00;;;;;;5083622;28;19912;-68
2021/09/19 09:44:02;;;;;;;;;;;44.20;1.00;;;;;;5077159;28;19913;-68
2021/09/19 09:46:27;;;;;;;;;;;44.20;1.00;;;;;;5080951;28;19931;-68
2021/09/19 09:48:52;;;;;;;;;;;45.30;1.00;;;;;;5089892;28;19958;-68
2021/09/19 09:51:23;;;;;;;;;;;44.70;1.00;;;;;;5089540;28;20352;-69
2021/09/19 09:53:58;;;;;;;;;;;42.90;1.00;;;;;;5088082;28;19943;-68
2021/09/19 09:56:24;;;;;;;;;;;42.40;1.00;;;;;;5088064;28;19908;-67
2021/09/19 09:58:50;;;;;;;;;;;42.30;1.00;;;;;;5089528;28;20276;-67
2021/09/19 10:01:16;;;;;;;;;;;42.40;1.00;;;;;;5088914;28;19994;-67
2021/09/19 10:03:43;;;;;;;;;;;42.80;1.00;;;;;;5088380;28;20002;-68
2021/09/19 10:06:10;;;;;;;;;;;43.20;1.00;;;;;;5089115;28;19930;-66
2021/09/19 10:08:35;;;;;;;;;;;41.80;1.00;;;;;;5088452;28;19926;-66
2021/09/19 10:11:01;;;;;;;;;;;39.70;1.00;;;;;;5089690;28;20372;-67
2021/09/19 10:13:26;;;;;;;;;;;38.90;1.00;;;;;;5081443;28;19912;-67
2021/09/19 10:15:52;;;;;;;;;;;39.70;1.00;;;;;;5084307;28;19912;-68
2021/09/19 10:18:18;;;;;;;;;;;40.10;1.00;;;;;;5088990;28;20031;-66
2021/09/19 10:20:45;;;;;;;;;;;38.80;1.00;;;;;;5089564;28;20078;-66
2021/09/19 10:23:13;;;;;;;;;;;39.10;1.00;;;;;;5084958;28;19916;-68
2021/09/19 10:25:38;;;;;;;;;;;40.00;1.00;;;;;;5078030;28;19998;-68
2021/09/19 10:28:23;;;;;;;;;;;40.40;1.00;;;;;;5072595;28;19927;-67
2021/09/19 10:31:07;;;;;;;;;;;40.40;1.00;;;;;;5085816;28;19916;-68
2021/09/19 10:33:53;;;;;;;;;;;40.30;1.00;;;;;;5083221;28;20032;-68
2021/09/19 10:36:37;;;;;;;;;;;40.50;1.00;;;;;;5073612;28;19915;-69
2021/09/19 10:39:22;;;;;;;;;;;39.40;1.00;;;;;;5072088;28;19915;-66
2021/09/19 10:42:07;;;;;;;;;;;37.60;1.00;;;;;;5088789;28;19942;-67
2021/09/19 10:44:37;;;;;;;;;;;35.40;1.00;;;;;;5089222;28;19917;-68
2021/09/19 10:47:03;;;;;;;;;;;35.20;1.00;;;;;;5087425;28;19915;-67
2021/09/19 10:49:32;;;;;;;;;;;35.90;1.00;;;;;;5068827;28;19916;-67
2021/09/19 10:52:00;;;;;;;;;;;34.60;1.00;;;;;;5076757;28;19918;-67
2021/09/19 10:54:50;;;;;;;;;;;34.50;1.00;;;;;;5088761;28;20003;-66
2021/09/19 10:57:16;;;;;;;;;;;35.10;1.00;;;;;;5084750;28;20253;-66
2021/09/19 11:00:00;;;;;;;;;;;35.50;1.00;;;;;;5089010;28;19927;-68
2021/09/19 11:02:29;;;;;;;;;;;34.50;1.00;;;;;;5081079;28;19961;-66
2021/09/19 11:05:13;;;;;;;;;;;32.80;1.00;;;;;;5088191;28;19995;-67
2021/09/19 11:07:40;;;;;;;;;;;31.40;1.00;;;;;;5087138;28;20085;-70
2021/09/19 11:10:08;;;;;;;;;;;30.50;1.00;;;;;;5088603;28;19913;-67
2021/09/19 11:12:43;;;;;;;;;;;29.60;1.00;;;;;;5086262;28;19938;-66
2021/09/19 11:15:11;;;;;;;;;;;29.30;1.00;;;;;;5079525;28;19916;-68
2021/09/19 11:17:42;;;;;;;;;;;29.10;1.00;;;;;;5080944;28;19961;-66
2021/09/19 11:20:22;;;;;;;;;;;29.40;1.00;;;;;;5074244;28;19922;-66
2021/09/19 11:22:52;;;;;;;;;;;28.70;1.00;;;;;;5080746;28;19908;-68
2021/09/19 11:25:18;;;;;;;;;;;28.20;1.00;;;;;;5084229;28;20509;-67
2021/09/19 11:27:45;;;;;;;;;;;28.10;2.30;;;;;;5068825;28;20008;-69
2021/09/19 11:30:12;;;;;;;;;;;27.50;3.40;;;;;;5086308;28;19908;-67
2021/09/19 11:32:38;;;;;;;;;;;26.70;5.20;;;;;;5086469;28;19915;-68
2021/09/19 11:35:04;;;;;;;;;;;26.70;8.50;;;;;;5088678;28;20421;-68
2021/09/19 11:37:29;;;;;;;;;;;27.00;10.70;;;;;;5078260;28;19916;-68
2021/09/19 11:39:55;;;;;;;;;;;28.00;12.50;;;;;;5077987;28;19999;-68
2021/09/19 11:42:25;;;;;;;;;;;28.30;13.00;;;;;;5076811;28;20008;-68
2021/09/19 11:44:50;;;;;;;;;;;28.60;15.10;;;;;;5076773;28;19913;-68
2021/09/19 11:47:20;;;;;;;;;;;28.40;15.70;;;;;;5077325;28;20434;-68
2021/09/19 11:49:46;;;;;;;;;;;28.20;16.10;;;;;;5077735;28;19916;-68
2021/09/19 11:52:12;;;;;;;;;;;27.90;17.10;;;;;;5075960;28;19917;-67
2021/09/19 11:54:41;;;;;;;;;;;27.20;18.20;;;;;;5078071;28;20373;-68
2021/09/19 11:57:07;;;;;;;;;;;26.90;19.00;;;;;;5079292;28;19920;-66
2021/09/19 11:59:32;;;;;;;;;;;26.30;20.40;;;;;;5078970;28;20583;-67
2021/09/19 12:01:58;;;;;;;;;;;26.00;21.50;;;;;;5077054;28;19916;-67
2021/09/19 12:04:25;;;;;;;;;;;25.30;22.30;;;;;;5078209;28;19952;-67
2021/09/19 12:06:51;;;;;;;;;;;25.10;23.90;;;;;;5084686;28;20006;-68
2021/09/19 12:09:18;;;;;;;;;;;25.00;25.90;;;;;;5087652;28;19984;-68
2021/09/19 12:11:54;;;;;;;;;;;25.30;26.90;;;;;;5086479;28;19988;-65
2021/09/19 12:14:21;;;;;;;;;;;25.60;29.30;;;;;;5082659;28;19927;-67
2021/09/19 12:17:03;;;;;;;;;;;26.00;30.70;;;;;;5087805;28;19951;-68
2021/09/19 12:19:30;;;;;;;;;;;25.90;31.10;;;;;;5071619;28;19912;-68
2021/09/19 12:22:01;;;;;;;;;;;25.70;33.00;;;;;;5068213;28;19962;-66
2021/09/19 12:24:28;;;;;;;;;;;25.90;33.40;;;;;;5078031;28;19935;-67
2021/09/19 12:27:08;;;;;;;;;;;25.60;33.60;;;;;;5088765;28;20541;-67
2021/09/19 12:29:33;;;;;;;;;;;25.30;33.90;;;;;;5091170;28;20015;-68
2021/09/19 12:32:00;;;;;;;;;;;25.30;35.80;;;;;;5089970;28;20334;-66
2021/09/19 12:34:26;;;;;;;;;;;25.40;36.30;;;;;;5091305;28;19947;-67
2021/09/19 12:36:53;;;;;;;;;;;25.40;37.20;;;;;;5090406;28;20012;-67
2021/09/19 12:39:23;;;;;;;;;;;25.10;37.20;;;;;;5091094;28;19912;-66
2021/09/19 12:41:50;;;;;;;;;;;25.00;38.50;;;;;;5090882;28;19912;-68
2021/09/19 12:44:17;;;;;;;;;;;25.20;38.50;;;;;;5092111;28;20344;-67
2021/09/19 12:46:46;;;;;;;;;;;25.40;37.00;;;;;;5090684;28;19999;-67
2021/09/19 12:49:22;;;;;;;;;;;24.80;36.50;;;;;;5091550;28;20371;-68
2021/09/19 12:52:00;;;;;;;;;;;24.10;36.50;;;;;;5089829;28;20359;-68
2021/09/19 12:54:25;;;;;;;;;;;23.80;38.00;;;;;;5090784;28;20295;-67
2021/09/19 12:56:51;;;;;;;;;;;24.10;41.70;;;;;;5090531;28;19912;-68
2021/09/19 12:59:16;;;;;;;;;;;24.10;42.70;;;;;;5090855;28;19919;-66
2021/09/19 13:01:42;;;;;;;;;;;24.00;41.90;;;;;;5090730;28;19912;-68
2021/09/19 13:04:07;;;;;;;;;;;24.10;43.90;;;;;;5089404;28;19923;-67
2021/09/19 13:06:33;;;;;;;;;;;24.50;47.40;;;;;;5089337;28;19920;-67
2021/09/19 13:08:58;;;;;;;;;;;25.10;48.80;;;;;;5090100;28;20002;-69
2021/09/19 13:11:24;;;;;;;;;;;25.80;50.30;;;;;;5089819;28;19965;-69
2021/09/19 13:13:49;;;;;;;;;;;26.40;50.00;;;;;;5097520;28;19923;-68
2021/09/19 13:16:15;;;;;;;;;;;26.90;50.20;;;;;;5090360;28;19916;-66
2021/09/19 13:18:40;;;;;;;;;;;27.10;50.20;;;;;;5090594;28;19920;-68
2021/09/19 13:21:06;;;;;;;;;;;26.70;48.40;;;;;;5090165;28;20013;-68
2021/09/19 13:23:32;;;;;;;;;;;25.30;46.30;;;;;;5088462;28;19957;-68
2021/09/19 13:25:57;;;;;;;;;;;24.80;47.70;;;;;;5079513;28;19994;-66
2021/09/19 13:28:23;;;;;;;;;;;24.30;48.20;;;;;;5078000;28;19930;-68
2021/09/19 13:30:49;;;;;;;;;;;24.00;49.20;;;;;;5091278;28;19912;-66
2021/09/19 13:33:14;;;;;;;;;;;23.80;51.40;;;;;;5088524;28;20311;-67
2021/09/19 13:35:39;;;;;;;;;;;23.80;52.80;;;;;;5091228;28;20035;-68
2021/09/19 13:38:05;;;;;;;;;;;23.80;54.90;;;;;;5087754;28;20356;-68
2021/09/19 13:40:31;;;;;;;;;;;23.80;55.60;;;;;;5090857;28;19926;-68
2021/09/19 13:42:56;;;;;;;;;;;23.80;56.50;;;;;;5088615;28;19912;-67
2021/09/19 13:45:22;;;;;;;;;;;23.80;57.90;;;;;;5090296;28;19923;-66
2021/09/19 13:47:47;;;;;;;;;;;23.80;59.60;;;;;;5089165;28;20398;-67
2021/09/19 13:50:13;;;;;;;;;;;23.90;60.10;;;;;;5090081;28;19916;-67
2021/09/19 13:52:38;;;;;;;;;;;24.10;62.20;;;;;;5087961;28;20284;-67
2021/09/19 13:55:04;;;;;;;;;;;24.30;62.60;;;;;;5088993;28;19923;-67
2021/09/19 13:57:30;;;;;;;;;;;24.40;63.20;;;;;;5089947;28;19966;-68
2021/09/19 13:59:55;;;;;;;;;;;24.60;63.50;;;;;;5089672;28;19912;-68
2021/09/19 14:02:21;;;;;;;;;;;24.80;64.70;;;;;;5088110;28;20380;-67
2021/09/19 14:04:46;;;;;;;;;;;25.00;63.90;;;;;;5089287;28;20372;-67
2021/09/19 14:07:12;;;;;;;;;;;25.10;66.00;;;;;;5088421;28;20396;-68
2021/09/19 14:09:38;;;;;;;;;;;25.30;63.70;;;;;;5088715;28;19908;-67
2021/09/19 14:12:03;;;;;;;;;;;25.30;63.50;;;;;;5088341;28;19920;-67
2021/09/19 14:14:29;;;;;;;;;;;25.40;63.00;;;;;;5087944;28;19912;-66
2021/09/19 14:16:55;;;;;;;;;;;25.40;62.10;;;;;;5088997;28;20001;-66
2021/09/19 14:19:21;;;;;;;;;;;25.40;60.20;;;;;;5089041;28;19955;-67
2021/09/19 14:21:46;;;;;;;;;;;25.40;59.40;;;;;;5087134;28;20324;-68
2021/09/19 14:24:12;;;;;;;;;;;25.40;58.60;;;;;;5088676;28;20007;-68